createdAt,value
2018-11-27T00:00:58.825Z,5.40
2018-11-27T00:03:30.553Z,5.40
2018-11-27T00:05:57.668Z,5.40
2018-11-27T00:08:24.788Z,5.40
2018-11-27T00:10:51.930Z,5.30
2018-11-27T00:13:19.065Z,5.30
2018-11-27T00:15:46.333Z,5.30
2018-11-27T00:18:13.473Z,5.10
2018-11-27T00:20:40.586Z,5.20
2018-11-27T00:23:07.788Z,5.20
2018-11-27T00:25:35.341Z,5.20
2018-11-27T00:28:02.517Z,5.20
2018-11-27T00:30:29.655Z,5.20
2018-11-27T00:32:56.780Z,5.30
2018-11-27T00:35:23.909Z,5.30
2018-11-27T00:37:51.045Z,5.20
2018-11-27T00:40:19.648Z,5.30
2018-11-27T00:42:46.794Z,5.20
2018-11-27T00:45:15.084Z,5.20
2018-11-27T00:47:42.920Z,5.30
2018-11-27T00:50:13.970Z,5.30
2018-11-27T00:52:41.260Z,5.40
2018-11-27T00:55:11.552Z,5.40
2018-11-27T00:57:39.208Z,5.50
2018-11-27T01:00:15.352Z,5.50
2018-11-27T01:02:42.516Z,5.50
2018-11-27T01:05:11.605Z,5.50
2018-11-27T01:07:38.756Z,5.40
2018-11-27T01:10:08.280Z,5.40
2018-11-27T01:12:35.405Z,5.20
2018-11-27T01:15:02.564Z,5.20
2018-11-27T01:17:29.687Z,5.30
2018-11-27T01:19:56.850Z,5.30
2018-11-27T01:22:24.000Z,5.30
2018-11-27T01:24:51.146Z,5.20
2018-11-27T01:27:18.270Z,5.20
2018-11-27T01:29:45.400Z,5.30
2018-11-27T01:32:12.518Z,5.40
2018-11-27T01:34:39.632Z,5.40
2018-11-27T01:37:06.759Z,5.60
2018-11-27T01:39:33.886Z,5.80
2018-11-27T01:42:01.028Z,5.70
2018-11-27T01:44:28.189Z,5.70
2018-11-27T01:46:55.358Z,5.60
2018-11-27T01:49:22.505Z,5.70
2018-11-27T01:51:49.616Z,5.70
2018-11-27T01:54:16.723Z,5.60
2018-11-27T01:56:43.909Z,5.60
2018-11-27T01:59:11.037Z,5.60
2018-11-27T02:01:38.177Z,5.50
2018-11-27T02:04:05.728Z,5.40
2018-11-27T02:06:32.888Z,5.40
2018-11-27T02:09:00.018Z,5.30
2018-11-27T02:11:27.141Z,5.30
2018-11-27T02:13:54.265Z,5.30
2018-11-27T02:16:21.376Z,5.30
2018-11-27T02:18:48.489Z,5.20
2018-11-27T02:21:16.069Z,5.30
2018-11-27T02:23:43.209Z,5.30
2018-11-27T02:26:10.331Z,5.30
2018-11-27T02:28:37.461Z,5.20
2018-11-27T02:31:04.619Z,5.10
2018-11-27T02:33:31.749Z,5.10
2018-11-27T02:35:58.897Z,5.00
2018-11-27T02:38:26.025Z,5.00
2018-11-27T02:40:53.140Z,5.00
2018-11-27T02:43:20.262Z,5.00
2018-11-27T02:45:47.372Z,5.00
2018-11-27T02:48:14.476Z,5.00
2018-11-27T02:50:41.582Z,4.90
2018-11-27T02:53:08.686Z,4.90
2018-11-27T02:55:35.788Z,4.90
2018-11-27T02:58:02.922Z,4.90
2018-11-27T03:00:30.057Z,4.90
2018-11-27T03:02:57.193Z,4.90
2018-11-27T03:05:33.426Z,5.00
2018-11-27T03:08:00.573Z,5.00
2018-11-27T03:10:27.729Z,5.00
2018-11-27T03:12:54.869Z,5.00
2018-11-27T03:15:22.019Z,5.00
2018-11-27T03:17:49.135Z,5.00
2018-11-27T03:20:16.993Z,5.00
2018-11-27T03:22:44.152Z,5.00
2018-11-27T03:25:12.405Z,5.00
2018-11-27T03:27:39.521Z,4.90
2018-11-27T03:30:11.939Z,4.90
2018-11-27T03:32:39.061Z,4.90
2018-11-27T03:35:08.472Z,4.90
2018-11-27T03:37:35.588Z,5.00
2018-11-27T03:40:02.978Z,5.10
2018-11-27T03:42:30.101Z,5.10
2018-11-27T03:44:57.219Z,5.00
2018-11-27T03:47:24.342Z,5.00
2018-11-27T03:49:51.466Z,5.00
2018-11-27T03:52:18.565Z,5.00
2018-11-27T03:54:45.681Z,5.00
2018-11-27T03:57:12.793Z,4.90
2018-11-27T03:59:39.916Z,5.00
2018-11-27T04:02:07.064Z,5.00
2018-11-27T04:04:34.182Z,5.00
2018-11-27T04:07:01.287Z,4.90
2018-11-27T04:09:28.425Z,4.90
2018-11-27T04:11:55.531Z,5.00
2018-11-27T04:14:23.268Z,5.10
2018-11-27T04:16:50.398Z,5.10
2018-11-27T04:19:17.533Z,5.20
2018-11-27T04:21:44.630Z,5.20
2018-11-27T04:24:11.736Z,5.20
2018-11-27T04:26:38.856Z,5.20
2018-11-27T04:29:06.009Z,5.20
2018-11-27T04:31:33.137Z,5.10
2018-11-27T04:34:00.241Z,5.20
2018-11-27T04:36:27.344Z,5.10
2018-11-27T04:38:54.452Z,5.10
2018-11-27T04:41:21.569Z,5.00
2018-11-27T04:43:48.672Z,5.00
2018-11-27T04:46:15.797Z,5.00
2018-11-27T04:48:42.920Z,5.10
2018-11-27T04:51:10.028Z,5.00
2018-11-27T04:53:37.140Z,5.00
2018-11-27T04:56:04.272Z,4.90
2018-11-27T04:58:31.376Z,4.90
2018-11-27T05:00:58.493Z,4.90
2018-11-27T05:03:25.598Z,4.90
2018-11-27T05:05:52.741Z,4.90
2018-11-27T05:08:19.864Z,4.90
2018-11-27T05:10:46.980Z,4.90
2018-11-27T05:13:14.114Z,4.90
2018-11-27T05:15:41.253Z,4.80
2018-11-27T05:18:08.366Z,4.90
2018-11-27T05:20:35.496Z,4.90
2018-11-27T05:23:02.618Z,4.90
2018-11-27T05:25:29.720Z,5.00
2018-11-27T05:27:57.303Z,4.90
2018-11-27T05:30:26.308Z,4.80
2018-11-27T05:32:53.423Z,4.90
2018-11-27T05:35:23.976Z,4.90
2018-11-27T05:37:51.191Z,4.90
2018-11-27T05:40:22.228Z,4.90
2018-11-27T05:42:50.641Z,4.90
2018-11-27T05:45:18.705Z,4.80
2018-11-27T05:47:45.869Z,4.80
2018-11-27T05:50:14.028Z,4.90
2018-11-27T05:52:41.133Z,4.90
2018-11-27T05:55:09.482Z,4.80
2018-11-27T05:57:36.688Z,4.80
2018-11-27T06:00:10.687Z,4.70
2018-11-27T06:02:38.297Z,4.80
2018-11-27T06:05:08.320Z,4.80
2018-11-27T06:07:35.431Z,4.90
2018-11-27T06:10:02.732Z,4.80
2018-11-27T06:12:29.844Z,4.80
2018-11-27T06:14:56.964Z,4.80
2018-11-27T06:17:24.063Z,4.80
2018-11-27T06:19:51.184Z,4.80
2018-11-27T06:22:18.328Z,4.80
2018-11-27T06:24:45.432Z,4.80
2018-11-27T06:27:12.540Z,4.70
2018-11-27T06:29:39.657Z,4.70
2018-11-27T06:32:06.773Z,4.70
2018-11-27T06:34:33.893Z,4.80
2018-11-27T06:37:01.008Z,4.80
2018-11-27T06:39:28.121Z,4.80
2018-11-27T06:41:55.232Z,4.90
2018-11-27T06:44:22.349Z,5.00
2018-11-27T06:46:49.460Z,5.00
2018-11-27T06:49:16.592Z,5.10
2018-11-27T06:51:43.717Z,5.10
2018-11-27T06:54:10.838Z,5.20
2018-11-27T06:56:37.982Z,5.20
2018-11-27T06:59:05.568Z,5.20
2018-11-27T07:01:32.756Z,4.90
2018-11-27T07:03:59.888Z,4.80
2018-11-27T07:06:27.056Z,4.90
2018-11-27T07:08:54.173Z,4.90
2018-11-27T07:11:21.280Z,4.90
2018-11-27T07:13:48.392Z,5.00
2018-11-27T07:16:15.501Z,5.10
2018-11-27T07:18:42.604Z,5.40
2018-11-27T07:21:09.725Z,5.30
2018-11-27T07:23:36.853Z,5.20
2018-11-27T07:26:04.256Z,5.10
2018-11-27T07:28:31.368Z,5.20
2018-11-27T07:30:58.492Z,5.10
2018-11-27T07:33:25.587Z,5.00
2018-11-27T07:35:52.693Z,5.10
2018-11-27T07:38:19.855Z,5.10
2018-11-27T07:40:46.955Z,5.10
2018-11-27T07:43:14.077Z,5.00
2018-11-27T07:45:41.207Z,5.10
2018-11-27T07:48:08.997Z,5.20
2018-11-27T07:50:36.133Z,5.10
2018-11-27T07:53:03.298Z,5.00
2018-11-27T07:55:30.456Z,5.10
2018-11-27T07:57:58.425Z,5.20
2018-11-27T08:00:26.533Z,5.20
2018-11-27T08:02:55.586Z,5.20
2018-11-27T08:05:27.145Z,5.20
2018-11-27T08:07:58.086Z,5.10
2018-11-27T08:10:26.480Z,5.20
2018-11-27T08:12:53.619Z,5.20
2018-11-27T08:15:22.101Z,5.10
2018-11-27T08:17:49.236Z,5.20
2018-11-27T08:20:19.458Z,5.10
2018-11-27T08:22:46.587Z,5.10
2018-11-27T08:25:14.212Z,5.20
2018-11-27T08:27:41.352Z,5.20
2018-11-27T08:30:11.484Z,5.30
2018-11-27T08:32:38.601Z,5.20
2018-11-27T08:35:07.412Z,5.20
2018-11-27T08:37:34.595Z,5.20
2018-11-27T08:40:01.733Z,5.30
2018-11-27T08:42:28.854Z,5.30
2018-11-27T08:44:55.998Z,5.30
2018-11-27T08:47:23.117Z,5.40
2018-11-27T08:49:50.245Z,5.40
2018-11-27T08:52:17.361Z,5.50
2018-11-27T08:54:44.510Z,5.30
2018-11-27T08:57:11.664Z,5.30
2018-11-27T08:59:38.780Z,5.40
2018-11-27T09:02:05.979Z,5.40
2018-11-27T09:04:33.117Z,5.50
2018-11-27T09:07:00.301Z,5.60
2018-11-27T09:09:27.422Z,5.40
2018-11-27T09:11:54.548Z,5.40
2018-11-27T09:14:21.685Z,5.50
2018-11-27T09:16:48.850Z,5.50
2018-11-27T09:19:15.997Z,5.40
2018-11-27T09:21:43.143Z,5.50
2018-11-27T09:24:10.261Z,5.40
2018-11-27T09:26:37.396Z,5.40
2018-11-27T09:29:04.812Z,5.60
2018-11-27T09:31:31.968Z,5.50
2018-11-27T09:33:59.100Z,5.60
2018-11-27T09:36:26.229Z,5.50
2018-11-27T09:38:53.346Z,5.60
2018-11-27T09:41:20.469Z,5.60
2018-11-27T09:43:47.584Z,5.70
2018-11-27T09:46:14.713Z,5.60
2018-11-27T09:48:41.892Z,5.60
2018-11-27T09:51:09.059Z,5.60
2018-11-27T09:53:36.270Z,5.60
2018-11-27T09:56:03.565Z,5.50
2018-11-27T09:58:30.682Z,5.40
2018-11-27T10:00:57.869Z,5.50
2018-11-27T10:03:25.016Z,5.50
2018-11-27T10:05:52.143Z,5.50
2018-11-27T10:08:19.281Z,5.50
2018-11-27T10:10:46.424Z,5.50
2018-11-27T10:13:13.576Z,5.60
2018-11-27T10:15:40.700Z,5.50
2018-11-27T10:18:07.844Z,5.50
2018-11-27T10:20:36.320Z,5.60
2018-11-27T10:23:05.404Z,5.50
2018-11-27T10:25:32.499Z,5.60
2018-11-27T10:27:59.692Z,5.60
2018-11-27T10:30:27.400Z,5.70
2018-11-27T10:32:55.641Z,5.50
2018-11-27T10:35:27.477Z,5.50
2018-11-27T10:37:54.576Z,5.50
2018-11-27T10:40:21.758Z,5.60
2018-11-27T10:42:49.009Z,5.60
2018-11-27T10:45:17.160Z,5.50
2018-11-27T10:47:45.412Z,5.40
2018-11-27T10:50:13.506Z,5.50
2018-11-27T10:52:41.887Z,5.40
2018-11-27T10:55:11.494Z,5.50
2018-11-27T10:57:38.693Z,5.60
2018-11-27T11:00:15.313Z,5.70
2018-11-27T11:02:42.521Z,5.60
2018-11-27T11:05:09.704Z,5.60
2018-11-27T11:07:36.871Z,5.60
2018-11-27T11:10:04.937Z,5.50
2018-11-27T11:12:32.069Z,5.50
2018-11-27T11:14:59.204Z,5.40
2018-11-27T11:17:26.331Z,5.50
2018-11-27T11:19:53.464Z,5.40
2018-11-27T11:22:20.576Z,5.40
2018-11-27T11:24:47.793Z,5.60
2018-11-27T11:27:14.932Z,5.60
2018-11-27T11:29:42.082Z,5.60
2018-11-27T11:32:09.209Z,5.50
2018-11-27T11:34:36.332Z,5.40
2018-11-27T11:37:03.484Z,5.50
2018-11-27T11:39:30.623Z,5.50
2018-11-27T11:41:57.822Z,5.60
2018-11-27T11:44:24.948Z,5.70
2018-11-27T11:46:52.286Z,5.70
2018-11-27T11:49:19.415Z,5.80
2018-11-27T11:51:46.542Z,5.70
2018-11-27T11:54:13.705Z,5.60
2018-11-27T11:56:40.816Z,5.80
2018-11-27T11:59:07.940Z,5.70
2018-11-27T12:01:35.094Z,5.50
2018-11-27T12:04:02.264Z,5.70
2018-11-27T12:06:29.394Z,5.70
2018-11-27T12:08:56.529Z,5.70
2018-11-27T12:11:23.696Z,5.60
2018-11-27T12:13:50.815Z,5.60
2018-11-27T12:16:17.952Z,5.70
2018-11-27T12:18:45.074Z,5.60
2018-11-27T12:21:12.207Z,5.60
2018-11-27T12:23:39.406Z,5.50
2018-11-27T12:26:06.632Z,5.50
2018-11-27T12:28:33.827Z,5.30
2018-11-27T12:31:00.989Z,5.40
2018-11-27T12:33:28.144Z,5.50
2018-11-27T12:35:55.285Z,5.60
2018-11-27T12:38:22.434Z,5.50
2018-11-27T12:40:49.552Z,5.40
2018-11-27T12:43:16.689Z,5.40
2018-11-27T12:45:43.865Z,5.50
2018-11-27T12:48:11.016Z,5.50
2018-11-27T12:50:40.601Z,5.60
2018-11-27T12:53:09.245Z,5.60
2018-11-27T12:55:37.821Z,5.60
2018-11-27T12:58:05.801Z,5.60
2018-11-27T13:00:32.980Z,5.50
2018-11-27T13:03:00.105Z,5.70
2018-11-27T13:05:28.016Z,5.60
2018-11-27T13:07:58.179Z,5.60
2018-11-27T13:10:25.324Z,5.70
2018-11-27T13:12:52.448Z,5.80
2018-11-27T13:15:20.367Z,5.90
2018-11-27T13:17:48.671Z,5.90
2018-11-27T13:20:16.948Z,6.00
2018-11-27T13:22:44.077Z,5.80
2018-11-27T13:25:17.284Z,5.80
2018-11-27T13:27:44.465Z,6.00
2018-11-27T13:30:21.789Z,6.00
2018-11-27T13:32:50.924Z,6.00
2018-11-27T13:35:18.074Z,5.90
2018-11-27T13:37:45.209Z,6.00
2018-11-27T13:40:12.784Z,6.00
2018-11-27T13:42:40.332Z,6.20
2018-11-27T13:45:11.780Z,6.20
2018-11-27T13:47:39.011Z,5.80
2018-11-27T13:50:14.243Z,5.50
2018-11-27T13:52:41.418Z,5.40
2018-11-27T13:55:11.524Z,5.50
2018-11-27T13:57:38.664Z,5.60
2018-11-27T14:00:08.733Z,5.80
2018-11-27T14:02:35.849Z,5.90
2018-11-27T14:05:03.277Z,6.00
2018-11-27T14:07:30.478Z,5.90
2018-11-27T14:09:57.601Z,6.10
2018-11-27T14:12:24.750Z,6.10
2018-11-27T14:14:51.896Z,5.80
2018-11-27T14:17:19.021Z,5.50
2018-11-27T14:19:46.138Z,5.40
2018-11-27T14:22:13.248Z,5.40
2018-11-27T14:24:40.364Z,5.40
2018-11-27T14:27:07.512Z,5.50
2018-11-27T14:29:34.685Z,5.30
2018-11-27T14:32:01.808Z,5.10
2018-11-27T14:34:28.916Z,5.30
2018-11-27T14:36:56.056Z,5.50
2018-11-27T14:39:23.209Z,5.60
2018-11-27T14:41:50.320Z,5.40
2018-11-27T14:44:17.461Z,5.20
2018-11-27T14:46:44.609Z,5.10
2018-11-27T14:49:11.728Z,5.20
2018-11-27T14:51:38.840Z,5.20
2018-11-27T14:54:05.979Z,5.10
2018-11-27T14:56:33.825Z,5.10
2018-11-27T14:59:00.972Z,5.00
2018-11-27T15:01:28.120Z,4.90
2018-11-27T15:03:55.244Z,4.80
2018-11-27T15:06:22.381Z,4.90
2018-11-27T15:08:49.511Z,4.90
2018-11-27T15:11:16.621Z,5.00
2018-11-27T15:13:43.736Z,5.00
2018-11-27T15:16:10.873Z,5.10
2018-11-27T15:18:38.017Z,5.20
2018-11-27T15:21:05.465Z,5.10
2018-11-27T15:23:32.664Z,5.00
2018-11-27T15:25:59.790Z,4.90
2018-11-27T15:28:26.936Z,4.90
2018-11-27T15:30:54.090Z,4.90
2018-11-27T15:33:21.246Z,4.90
2018-11-27T15:35:48.372Z,4.80
2018-11-27T15:38:15.492Z,4.70
2018-11-27T15:40:42.656Z,4.80
2018-11-27T15:43:09.810Z,4.90
2018-11-27T15:45:36.936Z,4.90
2018-11-27T15:48:06.196Z,4.90
2018-11-27T15:50:33.315Z,4.80
2018-11-27T15:53:00.491Z,4.80
2018-11-27T15:55:30.766Z,4.70
2018-11-27T15:58:02.902Z,4.50
2018-11-27T16:00:30.024Z,4.60
2018-11-27T16:02:57.189Z,4.60
2018-11-27T16:05:24.353Z,4.60
2018-11-27T16:07:51.504Z,4.50
2018-11-27T16:10:19.095Z,4.50
2018-11-27T16:12:46.265Z,4.50
2018-11-27T16:15:15.254Z,4.40
2018-11-27T16:17:42.600Z,4.50
2018-11-27T16:20:11.771Z,4.50
2018-11-27T16:22:39.547Z,4.50
2018-11-27T16:25:09.668Z,4.50
2018-11-27T16:27:36.800Z,4.50
2018-11-27T16:30:08.461Z,4.40
2018-11-27T16:32:35.602Z,4.40
2018-11-27T16:35:02.770Z,4.50
2018-11-27T16:37:30.041Z,4.40
2018-11-27T16:39:57.194Z,4.50
2018-11-27T16:42:24.336Z,4.40
2018-11-27T16:44:51.466Z,4.40
2018-11-27T16:47:18.588Z,4.30
2018-11-27T16:49:45.772Z,4.40
2018-11-27T16:52:12.915Z,4.30
2018-11-27T16:54:40.054Z,4.30
2018-11-27T16:57:07.176Z,4.20
2018-11-27T16:59:34.291Z,4.20
2018-11-27T17:02:01.420Z,4.20
2018-11-27T17:04:28.568Z,4.30
2018-11-27T17:06:55.704Z,4.30
2018-11-27T17:09:22.821Z,4.40
2018-11-27T17:11:49.968Z,4.50
2018-11-27T17:14:17.131Z,4.50
2018-11-27T17:16:44.297Z,4.50
2018-11-27T17:19:11.448Z,4.60
2018-11-27T17:21:38.597Z,4.70
2018-11-27T17:24:05.741Z,4.80
2018-11-27T17:26:32.905Z,4.70
2018-11-27T17:29:00.022Z,4.80
2018-11-27T17:31:27.148Z,5.00
2018-11-27T17:34:25.484Z,4.90
2018-11-27T17:36:52.693Z,4.90
2018-11-27T17:39:19.812Z,4.90
2018-11-27T17:41:46.929Z,5.00
2018-11-27T17:44:15.213Z,5.10
2018-11-27T17:46:42.410Z,5.10
2018-11-27T17:49:09.548Z,4.90
2018-11-27T17:51:36.660Z,5.00
2018-11-27T17:54:03.837Z,5.00
2018-11-27T17:56:31.028Z,5.00
2018-11-27T17:58:58.160Z,5.00
2018-11-27T18:01:25.318Z,5.00
2018-11-27T18:03:52.464Z,5.20
2018-11-27T18:06:19.619Z,5.20
2018-11-27T18:08:46.778Z,5.10
2018-11-27T18:11:13.908Z,5.10
2018-11-27T18:13:41.048Z,5.00
2018-11-27T18:16:08.184Z,5.00
2018-11-27T18:18:35.316Z,5.00
2018-11-27T18:21:02.460Z,4.60
2018-11-27T18:23:29.617Z,4.60
2018-11-27T18:25:56.769Z,4.50
2018-11-27T18:28:23.921Z,4.40
2018-11-27T18:30:51.063Z,4.30
2018-11-27T18:33:18.203Z,4.20
2018-11-27T18:35:45.396Z,4.20
2018-11-27T18:38:12.544Z,4.20
2018-11-27T18:40:39.677Z,4.20
2018-11-27T18:43:06.820Z,4.10
2018-11-27T18:45:34.124Z,4.20
2018-11-27T18:48:01.291Z,4.20
2018-11-27T18:50:30.048Z,4.30
2018-11-27T18:52:57.261Z,4.30
2018-11-27T18:55:24.411Z,4.30
2018-11-27T18:57:51.909Z,4.20
2018-11-27T19:00:22.052Z,4.40
2018-11-27T19:02:49.478Z,4.30
2018-11-27T19:05:16.622Z,4.20
2018-11-27T19:07:43.877Z,4.20
2018-11-27T19:10:18.295Z,4.40
2018-11-27T19:12:46.044Z,4.40
2018-11-27T19:15:14.852Z,4.20
2018-11-27T19:17:42.692Z,4.10
2018-11-27T19:20:11.069Z,4.10
2018-11-27T19:22:38.232Z,4.10
2018-11-27T19:25:07.193Z,4.20
2018-11-27T19:27:34.328Z,4.10
2018-11-27T19:30:01.504Z,4.10
2018-11-27T19:32:28.752Z,4.20
2018-11-27T19:34:55.893Z,4.20
2018-11-27T19:37:23.016Z,4.10
2018-11-27T19:39:50.164Z,4.10
2018-11-27T19:42:17.344Z,4.30
2018-11-27T19:44:44.472Z,4.40
2018-11-27T19:47:11.605Z,4.40
2018-11-27T19:49:38.729Z,4.40
2018-11-27T19:52:06.598Z,4.30
2018-11-27T19:54:33.819Z,4.20
2018-11-27T19:57:00.958Z,4.20
2018-11-27T19:59:28.128Z,4.20
2018-11-27T20:01:55.288Z,4.30
2018-11-27T20:04:22.477Z,4.30
2018-11-27T20:06:49.673Z,4.50
2018-11-27T20:09:16.817Z,4.50
2018-11-27T20:11:44.300Z,4.50
2018-11-27T20:14:11.432Z,4.50
2018-11-27T20:16:38.548Z,4.50
2018-11-27T20:19:05.696Z,4.50
2018-11-27T20:21:32.829Z,4.50
2018-11-27T20:23:59.939Z,4.40
2018-11-27T20:26:27.080Z,4.40
2018-11-27T20:28:54.216Z,4.40
2018-11-27T20:31:21.359Z,4.30
2018-11-27T20:33:48.509Z,4.30
2018-11-27T20:36:15.656Z,4.40
2018-11-27T20:38:42.785Z,4.40
2018-11-27T20:41:09.945Z,4.30
2018-11-27T20:43:37.090Z,4.30
2018-11-27T20:46:04.667Z,4.30
2018-11-27T20:48:31.813Z,4.40
2018-11-27T20:50:59.017Z,4.40
2018-11-27T20:53:26.161Z,4.50
2018-11-27T20:55:53.473Z,4.60
2018-11-27T20:58:20.652Z,4.70
2018-11-27T21:00:49.350Z,4.60
2018-11-27T21:03:16.509Z,4.60
2018-11-27T21:05:43.820Z,4.60
2018-11-27T21:08:10.965Z,4.80
2018-11-27T21:10:38.592Z,5.00
2018-11-27T21:13:06.921Z,5.10
2018-11-27T21:15:34.086Z,5.10
2018-11-27T21:18:01.232Z,5.10
2018-11-27T21:20:28.380Z,5.00
2018-11-27T21:22:55.533Z,5.00
2018-11-27T21:25:23.612Z,5.00
2018-11-27T21:27:57.240Z,5.10
2018-11-27T21:30:24.412Z,5.30
2018-11-27T21:32:51.577Z,5.20
2018-11-27T21:35:18.725Z,5.00
2018-11-27T21:37:45.864Z,5.00
2018-11-27T21:40:16.028Z,5.00
2018-11-27T21:42:43.275Z,5.20
2018-11-27T21:45:15.323Z,5.20
2018-11-27T21:47:42.523Z,5.20
2018-11-27T21:50:12.000Z,5.10
2018-11-27T21:52:39.143Z,5.10
2018-11-27T21:55:08.665Z,4.90
2018-11-27T21:57:35.812Z,4.90
2018-11-27T22:00:03.018Z,4.90
2018-11-27T22:02:30.171Z,4.90
2018-11-27T22:04:57.296Z,4.80
2018-11-27T22:07:24.533Z,4.80
2018-11-27T22:09:51.681Z,4.80
2018-11-27T22:12:18.848Z,4.80
2018-11-27T22:14:46.004Z,4.60
2018-11-27T22:17:13.185Z,4.60
2018-11-27T22:19:40.401Z,4.70
2018-11-27T22:22:07.574Z,4.80
2018-11-27T22:24:34.722Z,4.80
2018-11-27T22:27:01.875Z,4.80
2018-11-27T22:29:29.016Z,5.00
2018-11-27T22:31:56.234Z,5.00
2018-11-27T22:34:23.323Z,5.00
2018-11-27T22:36:50.455Z,5.10
2018-11-27T22:39:17.634Z,5.10
2018-11-27T22:41:44.814Z,4.90
2018-11-27T22:44:11.944Z,5.00
2018-11-27T22:46:39.086Z,4.70
2018-11-27T22:49:06.232Z,4.60
2018-11-27T22:51:33.385Z,4.70
2018-11-27T22:54:00.553Z,4.60
2018-11-27T22:56:27.697Z,4.60
2018-11-27T22:58:54.843Z,4.50
2018-11-27T23:01:22.026Z,4.50
2018-11-27T23:03:49.194Z,4.30
2018-11-27T23:06:16.378Z,4.00
2018-11-27T23:08:43.602Z,4.30
2018-11-27T23:11:10.748Z,4.30
2018-11-27T23:13:37.876Z,4.40
2018-11-27T23:16:05.728Z,4.30
2018-11-27T23:18:33.004Z,4.40
2018-11-27T23:21:00.207Z,4.50
2018-11-27T23:23:27.369Z,4.30
2018-11-27T23:25:54.537Z,4.30
2018-11-27T23:28:21.728Z,4.30
2018-11-27T23:30:48.884Z,4.20
2018-11-27T23:33:16.014Z,4.20
2018-11-27T23:35:43.195Z,4.50
2018-11-27T23:38:10.325Z,4.60
2018-11-27T23:40:37.508Z,4.50
2018-11-27T23:43:04.836Z,4.50
2018-11-27T23:45:31.982Z,4.40
2018-11-27T23:47:59.126Z,4.40
2018-11-27T23:50:26.312Z,4.40
2018-11-27T23:52:53.445Z,4.60
2018-11-27T23:55:20.568Z,4.60
2018-11-27T23:57:47.849Z,4.60
